METAR Data
IDs: Format: Raw Decoded Include TAF

Data at: 1326 UTC 24 Jan 2021

KERV 241315Z AUTO 13003KT 1/2SM FG OVC002 15/14 A2991 RMK AO2 T01480135
KERV 241255Z AUTO 18003KT 3/4SM BR OVC002 15/14 A2992 RMK AO2 T01480135
KERV 241235Z AUTO 13005KT 1/2SM FG OVC002 15/13 A2992 RMK AO2 T01460133
KERV 241215Z AUTO 15004KT 1/2SM FG OVC002 14/13 A2992 RMK AO2 T01410130
KERV 241155Z AUTO 00000KT 1/2SM FG OVC002 14/13 A2991 RMK AO2 60002 70003 T01410130 10148 20136
KERV 241135Z AUTO 00000KT 1SM BR OVC002 15/14 A2992 RMK AO2 T01480135
KERV 241115Z AUTO 00000KT 3/4SM BR OVC002 14/13 A2992 RMK AO2 T01430131
KERV 241055Z AUTO 00000KT 1/2SM FG OVC002 14/13 A2994 RMK AO2 P0001 T01410130
KERV 241035Z AUTO 00000KT 1/2SM FG OVC002 14/13 A2995 RMK AO2 P0001 T01400127
KERV 241015Z AUTO 00000KT 1/2SM FG OVC002 14/13 A2993 RMK AO2 P0001 T01400128
KERV 240955Z AUTO 00000KT 1/2SM RA OVC002 14/13 A2994 RMK AO2 T01400128
KERV 240935Z AUTO 25003KT 1/2SM FG OVC002 14/13 A2995 RMK AO2 T01410130

KT82 241315Z AUTO 17006KT 3/4SM BR OVC003 16/16 A2992 RMK AO2 T01560156
KT82 241255Z AUTO 16006KT 2SM BR OVC003 16/16 A2991 RMK AO2 T01580158
KT82 241235Z AUTO 17005KT 1 1/2SM BR OVC003 15/15 A2992 RMK AO2 T01530153
KT82 241215Z AUTO 00000KT 1/2SM FG OVC003 15/15 A2990 RMK AO2 T01480148
KT82 241155Z AUTO 12003KT 1/2SM FG OVC003 15/15 A2992 RMK AO2 T01460146 10147 20135
KT82 241135Z AUTO 12003KT 1/2SM FG OVC003 15/15 A2992 RMK AO2 T01470147
KT82 241115Z AUTO 13003KT 1/2SM FG OVC003 15/15 A2992 RMK AO2 T01450145
KT82 241055Z AUTO 00000KT 1/4SM FG OVC003 14/14 A2994 RMK AO2 T01420142
KT82 241035Z AUTO 00000KT 1/4SM FG OVC003 14/14 A2994 RMK AO2 T01440144
KT82 241015Z AUTO 09003KT 1/2SM FG OVC003 14/14 A2993 RMK AO2 T01400140
KT82 240955Z AUTO 00000KT 1/2SM FG OVC003 14/14 A2995 RMK AO2 T01400140
KT82 240935Z AUTO 00000KT 1/2SM FG OVC003 14/14 A2995 RMK AO2 T01400140

KHDO 241251Z AUTO 02005KT 1/4SM FG VV002 17/16 A2990 RMK AO2 SLP115 T01670156 $
KHDO 241151Z AUTO 11007KT 1/4SM FG VV002 17/16 A2989 RMK AO2 SLP112 60000 70001 T01670156 10167 20150 58014
KHDO 241051Z AUTO 06005KT 1/4SM FG VV002 16/16 A2991 RMK AO2 RAB04E16 SLP118 P0000 T01610156
KHDO 240951Z AUTO 11005KT 1/2SM FG VV002 16/16 A2992 RMK AO2 SLP121 T01610156